createdAt,value
2017-09-11T00:01:43.597Z,13.60
2017-09-11T00:04:11.292Z,13.70
2017-09-11T00:06:38.185Z,13.70
2017-09-11T00:09:05.082Z,13.60
2017-09-11T00:11:32.042Z,13.70
2017-09-11T00:13:58.925Z,13.60
2017-09-11T00:16:25.790Z,13.60
2017-09-11T00:18:52.751Z,13.60
2017-09-11T00:21:19.627Z,13.50
2017-09-11T00:23:46.533Z,13.50
2017-09-11T00:26:13.575Z,13.50
2017-09-11T00:28:40.446Z,13.40
2017-09-11T00:31:07.344Z,13.40
2017-09-11T00:33:35.051Z,13.50
2017-09-11T00:36:01.924Z,13.50
2017-09-11T00:38:28.816Z,13.50
2017-09-11T00:40:56.508Z,13.60
2017-09-11T00:43:23.453Z,13.60
2017-09-11T00:45:50.420Z,13.60
2017-09-11T00:48:17.373Z,13.60
2017-09-11T00:50:44.347Z,13.70
2017-09-11T00:53:11.407Z,13.80
2017-09-11T00:55:39.160Z,13.80
2017-09-11T00:58:06.177Z,13.90
2017-09-11T01:00:33.091Z,13.90
2017-09-11T01:03:00.107Z,13.90
2017-09-11T01:05:27.745Z,13.90
2017-09-11T01:07:54.631Z,13.80
2017-09-11T01:10:22.337Z,13.80
2017-09-11T01:12:49.309Z,13.90
2017-09-11T01:15:16.387Z,13.90
2017-09-11T01:17:44.066Z,13.90
2017-09-11T01:20:11.101Z,13.90
2017-09-11T01:22:38.089Z,14.00
2017-09-11T01:25:05.092Z,14.00
2017-09-11T01:27:32.138Z,14.00
2017-09-11T01:29:59.049Z,14.10
2017-09-11T01:32:26.028Z,14.10
2017-09-11T01:34:52.923Z,14.10
2017-09-11T01:37:19.802Z,14.20
2017-09-11T01:39:46.822Z,14.30
2017-09-11T01:42:13.808Z,14.30
2017-09-11T01:44:41.502Z,14.40
2017-09-11T01:47:08.512Z,14.40
2017-09-11T01:49:35.421Z,14.40
2017-09-11T01:52:02.409Z,14.30
2017-09-11T01:54:30.023Z,14.50
2017-09-11T01:56:56.974Z,14.40
2017-09-11T01:59:24.925Z,14.30
2017-09-11T02:01:51.876Z,14.30
2017-09-11T02:04:18.739Z,14.40
2017-09-11T02:06:45.717Z,14.50
2017-09-11T02:09:12.616Z,14.50
2017-09-11T02:11:39.472Z,14.50
2017-09-11T02:14:06.491Z,14.50
2017-09-11T02:16:33.426Z,14.50
2017-09-11T02:19:01.207Z,14.60
2017-09-11T02:21:28.105Z,14.60
2017-09-11T02:23:55.812Z,14.60
2017-09-11T02:26:22.784Z,14.50
2017-09-11T02:28:49.695Z,14.60
2017-09-11T02:31:17.344Z,14.70
2017-09-11T02:33:45.050Z,14.70
2017-09-11T02:36:11.997Z,14.70
2017-09-11T02:38:38.937Z,14.70
2017-09-11T02:41:05.834Z,14.70
2017-09-11T02:43:32.881Z,14.80
2017-09-11T02:45:59.785Z,14.90
2017-09-11T02:48:26.726Z,14.90
2017-09-11T02:50:53.611Z,14.90
2017-09-11T02:53:20.472Z,15.00
2017-09-11T02:55:47.423Z,14.90
2017-09-11T02:58:15.123Z,15.00
2017-09-11T03:00:42.024Z,15.00
2017-09-11T03:03:08.987Z,15.00
2017-09-11T03:05:35.862Z,15.00
2017-09-11T03:08:02.739Z,15.00
2017-09-11T03:10:29.714Z,15.00
2017-09-11T03:12:56.651Z,15.00
2017-09-11T03:15:23.544Z,15.00
2017-09-11T03:17:50.554Z,15.00
2017-09-11T03:20:17.461Z,15.00
2017-09-11T03:22:44.436Z,15.00
2017-09-11T03:25:11.322Z,15.10
2017-09-11T03:27:38.280Z,15.00
2017-09-11T03:30:05.238Z,15.00
2017-09-11T03:32:32.113Z,15.00
2017-09-11T03:34:59.100Z,15.00
2017-09-11T03:37:25.988Z,15.10
2017-09-11T03:39:52.868Z,15.10
2017-09-11T03:42:20.657Z,15.20
2017-09-11T03:44:47.560Z,15.20
2017-09-11T03:47:14.476Z,15.20
2017-09-11T03:49:41.368Z,15.10
2017-09-11T03:52:09.092Z,15.10
2017-09-11T03:54:35.972Z,15.10
2017-09-11T03:57:02.877Z,15.20
2017-09-11T03:59:29.864Z,15.20
2017-09-11T04:01:56.819Z,15.30
2017-09-11T04:04:23.721Z,15.30
2017-09-11T04:06:50.764Z,15.30
2017-09-11T04:09:17.675Z,15.30
2017-09-11T04:11:44.536Z,15.30
2017-09-11T04:14:11.455Z,15.30
2017-09-11T04:16:38.309Z,15.30
2017-09-11T04:19:05.233Z,15.30
2017-09-11T04:21:32.202Z,15.30
2017-09-11T04:23:59.059Z,15.30
2017-09-11T04:26:30.509Z,15.30
2017-09-11T04:29:09.266Z,15.30
2017-09-11T04:31:36.916Z,15.40
2017-09-11T04:34:03.843Z,15.40
2017-09-11T04:36:30.733Z,15.40
2017-09-11T04:38:58.074Z,15.40
2017-09-11T04:41:28.275Z,15.30
2017-09-11T04:43:55.990Z,15.30
2017-09-11T04:46:23.891Z,15.30
2017-09-11T04:48:58.221Z,15.30
2017-09-11T04:51:26.326Z,15.20
2017-09-11T04:53:53.427Z,15.10
2017-09-11T04:56:35.590Z,15.20
2017-09-11T04:59:16.205Z,15.00
2017-09-11T05:01:43.835Z,15.10
2017-09-11T05:04:12.007Z,15.00
2017-09-11T05:06:39.757Z,15.00
2017-09-11T05:09:06.659Z,14.90
2017-09-11T05:11:33.712Z,15.00
2017-09-11T05:14:01.793Z,15.10
2017-09-11T05:16:28.687Z,15.10
2017-09-11T05:18:55.813Z,15.00
2017-09-11T05:21:22.760Z,15.20
2017-09-11T05:23:49.933Z,15.20
2017-09-11T05:26:17.404Z,15.30
2017-09-11T05:28:45.078Z,15.40
2017-09-11T05:31:11.944Z,15.40
2017-09-11T05:33:38.910Z,15.40
2017-09-11T05:36:05.868Z,15.40
2017-09-11T05:38:32.818Z,15.40
2017-09-11T05:40:59.803Z,15.40
2017-09-11T05:43:27.469Z,15.30
2017-09-11T05:45:55.144Z,15.30
2017-09-11T05:48:22.018Z,15.30
2017-09-11T05:50:49.015Z,15.20
2017-09-11T05:53:16.720Z,15.10
2017-09-11T05:55:43.576Z,15.10
2017-09-11T05:58:10.510Z,15.00
2017-09-11T06:00:37.383Z,15.00
2017-09-11T06:03:04.321Z,14.90
2017-09-11T06:05:31.218Z,14.70
2017-09-11T06:07:58.172Z,14.60
2017-09-11T06:10:25.040Z,14.50
2017-09-11T06:12:51.972Z,14.50
2017-09-11T06:15:18.883Z,14.40
2017-09-11T06:17:46.484Z,14.20
2017-09-11T06:20:13.415Z,14.20
2017-09-11T06:22:40.275Z,14.10
2017-09-11T06:25:07.263Z,14.10
2017-09-11T06:27:34.107Z,13.90
2017-09-11T06:30:00.973Z,13.90
2017-09-11T06:32:27.883Z,14.00
2017-09-11T06:34:54.740Z,14.00
2017-09-11T06:37:21.674Z,13.90
2017-09-11T06:39:48.592Z,13.80
2017-09-11T06:42:15.460Z,13.80
2017-09-11T06:44:42.412Z,13.80
2017-09-11T06:47:09.344Z,13.70
2017-09-11T06:49:36.196Z,13.80
2017-09-11T06:52:03.217Z,13.80
2017-09-11T06:54:30.172Z,14.00
2017-09-11T06:56:57.035Z,14.00
2017-09-11T06:59:23.917Z,14.10
2017-09-11T07:01:50.868Z,14.30
2017-09-11T07:04:17.736Z,14.40
2017-09-11T07:06:44.611Z,14.60
2017-09-11T07:09:11.609Z,14.80
2017-09-11T07:11:39.516Z,15.10
2017-09-11T07:14:06.466Z,15.20
2017-09-11T07:16:33.447Z,15.20
2017-09-11T07:19:00.313Z,15.40
2017-09-11T07:21:27.207Z,15.50
2017-09-11T07:23:54.154Z,15.50
2017-09-11T07:26:21.041Z,15.50
2017-09-11T07:28:48.007Z,15.40
2017-09-11T07:31:15.644Z,15.40
2017-09-11T07:33:42.561Z,15.40
2017-09-11T07:36:09.608Z,15.30
2017-09-11T07:38:36.538Z,15.30
2017-09-11T07:41:04.848Z,15.40
2017-09-11T07:43:31.773Z,15.40
2017-09-11T07:45:58.696Z,15.30
2017-09-11T07:48:25.632Z,15.20
2017-09-11T07:50:53.325Z,15.40
2017-09-11T07:53:20.191Z,15.30
2017-09-11T07:55:47.129Z,15.40
2017-09-11T07:58:13.998Z,15.40
2017-09-11T08:00:40.955Z,15.30
2017-09-11T08:03:07.880Z,15.30
2017-09-11T08:05:34.751Z,15.50
2017-09-11T08:08:02.451Z,15.50
2017-09-11T08:10:29.391Z,15.50
2017-09-11T08:12:56.250Z,15.40
2017-09-11T08:15:23.113Z,15.50
2017-09-11T08:17:50.062Z,15.40
2017-09-11T08:20:16.944Z,15.40
2017-09-11T08:22:44.557Z,15.40
2017-09-11T08:25:11.510Z,15.40
2017-09-11T08:27:38.389Z,15.50
2017-09-11T08:30:05.285Z,15.50
2017-09-11T08:32:32.289Z,15.50
2017-09-11T08:34:59.160Z,15.50
2017-09-11T08:37:26.197Z,15.50
2017-09-11T08:40:04.814Z,15.50
2017-09-11T08:42:32.492Z,15.60
2017-09-11T08:45:02.693Z,15.80
2017-09-11T08:47:30.309Z,16.10
2017-09-11T08:49:57.311Z,16.00
2017-09-11T08:52:24.920Z,16.10
2017-09-11T08:54:51.853Z,16.10
2017-09-11T08:57:18.708Z,16.10
2017-09-11T08:59:45.651Z,16.30
2017-09-11T09:02:12.521Z,16.30
2017-09-11T09:04:39.485Z,16.30
2017-09-11T09:07:06.349Z,16.50
2017-09-11T09:09:33.220Z,16.90
2017-09-11T09:12:00.296Z,17.90
2017-09-11T09:14:27.242Z,19.20
2017-09-11T09:16:54.104Z,19.40
2017-09-11T09:19:21.089Z,21.80
2017-09-11T09:21:48.036Z,24.00
2017-09-11T09:24:15.001Z,22.80
2017-09-11T09:26:41.949Z,22.40
2017-09-11T09:29:08.881Z,21.40
2017-09-11T09:31:35.752Z,19.80
2017-09-11T09:34:02.756Z,19.50
2017-09-11T09:36:30.394Z,18.50
2017-09-11T09:38:57.317Z,18.50
2017-09-11T09:41:24.264Z,18.30
2017-09-11T09:43:51.261Z,18.20
2017-09-11T09:46:18.217Z,17.80
2017-09-11T09:48:45.162Z,18.20
2017-09-11T09:51:12.100Z,18.20
2017-09-11T09:53:38.969Z,18.20
2017-09-11T09:56:05.924Z,18.10
2017-09-11T09:58:32.803Z,17.90
2017-09-11T10:00:59.761Z,17.80
2017-09-11T10:03:26.635Z,17.60
2017-09-11T10:05:53.585Z,17.40
2017-09-11T10:08:20.523Z,17.70
2017-09-11T10:10:47.494Z,17.80
2017-09-11T10:13:14.400Z,17.80
2017-09-11T10:15:42.092Z,18.20
2017-09-11T10:18:08.961Z,18.10
2017-09-11T10:20:35.814Z,18.80
2017-09-11T10:23:02.750Z,18.90
2017-09-11T10:25:29.605Z,19.30
2017-09-11T10:27:56.481Z,19.50
2017-09-11T10:30:24.153Z,19.60
2017-09-11T10:32:51.748Z,19.70
2017-09-11T10:35:18.680Z,19.70
2017-09-11T10:37:45.569Z,19.50
2017-09-11T10:40:12.488Z,19.20
2017-09-11T10:42:39.352Z,19.00
2017-09-11T10:45:06.294Z,19.20
2017-09-11T10:47:33.152Z,19.10
2017-09-11T10:50:00.059Z,19.00
2017-09-11T10:52:27.009Z,19.20
2017-09-11T10:54:53.873Z,19.20
2017-09-11T10:57:20.828Z,19.20
2017-09-11T10:59:47.696Z,19.30
2017-09-11T11:02:14.691Z,19.50
2017-09-11T11:04:41.571Z,19.50
2017-09-11T11:07:08.496Z,19.60
2017-09-11T11:09:35.406Z,19.70
2017-09-11T11:12:02.382Z,19.50
2017-09-11T11:14:29.268Z,19.30
2017-09-11T11:16:56.200Z,19.20
2017-09-11T11:19:23.080Z,19.10
2017-09-11T11:21:50.780Z,18.90
2017-09-11T11:24:17.662Z,18.90
2017-09-11T11:26:44.603Z,18.70
2017-09-11T11:29:11.848Z,18.50
2017-09-11T11:31:38.763Z,18.60
2017-09-11T11:34:05.792Z,18.60
2017-09-11T11:36:32.745Z,18.70
2017-09-11T11:39:00.201Z,18.90
2017-09-11T11:41:39.135Z,19.00
2017-09-11T11:44:06.108Z,19.10
2017-09-11T11:46:33.046Z,19.10
2017-09-11T11:49:01.509Z,19.40
2017-09-11T11:51:28.373Z,19.40
2017-09-11T11:53:57.774Z,19.50
2017-09-11T11:56:24.655Z,19.50
2017-09-11T11:58:51.544Z,19.60
2017-09-11T12:01:21.111Z,19.70
2017-09-11T12:03:48.929Z,20.00
2017-09-11T12:06:15.945Z,20.00
2017-09-11T12:08:46.567Z,19.90
2017-09-11T12:11:15.479Z,19.80
2017-09-11T12:13:43.096Z,19.60
2017-09-11T12:16:10.103Z,19.60
2017-09-11T12:18:47.545Z,19.50
2017-09-11T12:21:26.257Z,19.60
2017-09-11T12:23:53.826Z,19.70
2017-09-11T12:26:21.148Z,19.80
2017-09-11T12:28:50.524Z,19.90
2017-09-11T12:31:18.390Z,19.90
2017-09-11T12:33:46.053Z,19.60
2017-09-11T12:36:16.255Z,20.30
2017-09-11T12:38:44.024Z,20.20
2017-09-11T12:41:12.120Z,20.60
2017-09-11T12:43:40.887Z,21.00
2017-09-11T12:46:09.625Z,20.90
2017-09-11T12:48:36.525Z,21.00
2017-09-11T12:51:07.987Z,21.00
2017-09-11T12:53:35.276Z,21.00
2017-09-11T12:56:03.274Z,20.80
2017-09-11T12:58:30.205Z,20.40
2017-09-11T13:01:01.390Z,20.40
2017-09-11T13:03:28.613Z,20.30
2017-09-11T13:05:59.825Z,20.20
2017-09-11T13:08:26.975Z,20.30
2017-09-11T13:10:56.000Z,20.30
2017-09-11T13:13:22.880Z,20.50
2017-09-11T13:15:50.577Z,20.70
2017-09-11T13:18:17.446Z,20.70
2017-09-11T13:20:56.617Z,21.00
2017-09-11T13:23:26.323Z,20.80
2017-09-11T13:25:54.909Z,20.60
2017-09-11T13:28:21.785Z,20.60
2017-09-11T13:30:48.740Z,20.50
2017-09-11T13:33:15.644Z,19.80
2017-09-11T13:35:42.589Z,19.90
2017-09-11T13:38:09.625Z,20.10
2017-09-11T13:40:38.797Z,20.40
2017-09-11T13:43:05.916Z,20.70
2017-09-11T13:45:33.730Z,21.00
2017-09-11T13:48:00.598Z,21.00
2017-09-11T13:50:27.468Z,21.20
2017-09-11T13:52:54.447Z,21.20
2017-09-11T13:55:22.972Z,21.40
2017-09-11T13:57:49.980Z,21.60
2017-09-11T14:00:18.186Z,21.50
2017-09-11T14:02:49.278Z,21.30
2017-09-11T14:05:16.575Z,21.30
2017-09-11T14:07:46.593Z,21.10
2017-09-11T14:10:16.523Z,20.70
2017-09-11T14:12:43.772Z,20.70
2017-09-11T14:15:12.407Z,20.90
2017-09-11T14:17:40.951Z,21.10
2017-09-11T14:20:08.650Z,21.10
2017-09-11T14:22:35.606Z,21.10
2017-09-11T14:25:04.602Z,21.30
2017-09-11T14:27:32.760Z,21.00
2017-09-11T14:30:04.431Z,20.90
2017-09-11T14:32:33.036Z,20.70
2017-09-11T14:35:05.513Z,20.80
2017-09-11T14:37:33.952Z,20.90
2017-09-11T14:40:01.604Z,21.10
2017-09-11T14:42:29.358Z,21.30
2017-09-11T14:44:56.410Z,21.30
2017-09-11T14:47:23.391Z,21.20
2017-09-11T14:49:50.276Z,21.00
2017-09-11T14:52:17.318Z,20.80
2017-09-11T14:54:44.261Z,20.70
2017-09-11T14:57:11.603Z,20.50
2017-09-11T14:59:43.977Z,20.30
2017-09-11T15:02:10.992Z,20.00
2017-09-11T15:04:41.818Z,19.90
2017-09-11T15:07:08.768Z,19.90
2017-09-11T15:09:36.454Z,19.50
2017-09-11T15:12:03.428Z,19.40
2017-09-11T15:14:30.388Z,19.20
2017-09-11T15:16:59.299Z,18.90
2017-09-11T15:19:32.343Z,18.80
2017-09-11T15:22:03.353Z,18.70
2017-09-11T15:24:33.869Z,18.60
2017-09-11T15:27:03.493Z,18.60
2017-09-11T15:29:38.249Z,18.50
2017-09-11T15:32:08.099Z,18.40
2017-09-11T15:34:35.259Z,18.30
2017-09-11T15:37:03.516Z,18.20
2017-09-11T15:39:35.457Z,18.00
2017-09-11T15:42:06.355Z,18.10
2017-09-11T15:44:34.495Z,18.10
2017-09-11T15:47:03.059Z,18.10
2017-09-11T15:49:33.064Z,18.20
2017-09-11T15:52:00.311Z,18.20
2017-09-11T15:54:27.196Z,18.20
2017-09-11T15:56:54.244Z,18.10
2017-09-11T15:59:23.993Z,18.20
2017-09-11T16:01:54.260Z,18.30
2017-09-11T16:04:33.409Z,18.40
2017-09-11T16:07:00.642Z,18.40
2017-09-11T16:09:31.156Z,18.40
2017-09-11T16:12:02.373Z,18.30
2017-09-11T16:14:36.019Z,18.30
2017-09-11T16:17:06.203Z,18.40
2017-09-11T16:19:33.915Z,18.50
2017-09-11T16:22:00.865Z,18.50
2017-09-11T16:24:27.732Z,18.50
2017-09-11T16:26:54.624Z,18.50
2017-09-11T16:29:22.404Z,18.50
2017-09-11T16:31:49.297Z,18.50
2017-09-11T16:34:30.936Z,18.40
2017-09-11T16:37:01.023Z,18.30
2017-09-11T16:39:28.168Z,18.20
2017-09-11T16:42:00.033Z,18.20
2017-09-11T16:44:27.502Z,18.10
2017-09-11T16:46:55.602Z,18.10
2017-09-11T16:49:22.547Z,18.10
2017-09-11T16:51:49.457Z,18.00
2017-09-11T16:54:16.470Z,17.90
2017-09-11T16:56:43.633Z,17.80
2017-09-11T16:59:10.615Z,17.80
2017-09-11T17:01:38.306Z,17.80
2017-09-11T17:04:05.244Z,17.80
2017-09-11T17:06:32.145Z,17.80
2017-09-11T17:08:59.008Z,17.80
2017-09-11T17:11:25.928Z,17.60
2017-09-11T17:13:52.903Z,17.60
2017-09-11T17:16:19.785Z,17.60
2017-09-11T17:18:46.729Z,17.50
2017-09-11T17:21:13.677Z,17.40
2017-09-11T17:23:40.701Z,17.30
2017-09-11T17:26:08.384Z,17.00
2017-09-11T17:28:35.333Z,17.00
2017-09-11T17:31:02.210Z,17.00
2017-09-11T17:33:30.096Z,16.90
2017-09-11T17:35:56.933Z,16.90
2017-09-11T17:38:23.947Z,16.90
2017-09-11T17:40:50.948Z,16.90
2017-09-11T17:43:17.929Z,16.80
2017-09-11T17:45:44.875Z,16.70
2017-09-11T17:48:11.814Z,16.60
2017-09-11T17:50:38.746Z,16.60
2017-09-11T17:53:06.442Z,16.50
2017-09-11T17:55:33.380Z,16.50
2017-09-11T17:58:00.323Z,16.40
2017-09-11T18:00:27.330Z,16.40
2017-09-11T18:02:54.221Z,16.40
2017-09-11T18:05:21.095Z,16.30
2017-09-11T18:07:48.041Z,16.30
2017-09-11T18:10:14.948Z,16.20
2017-09-11T18:12:41.972Z,16.20
2017-09-11T18:15:08.940Z,16.20
2017-09-11T18:17:36.679Z,16.20
2017-09-11T18:20:03.657Z,16.20
2017-09-11T18:22:30.530Z,16.10
2017-09-11T18:24:57.429Z,16.10
2017-09-11T18:27:25.177Z,15.90
2017-09-11T18:29:52.078Z,15.80
2017-09-11T18:32:18.961Z,15.80
2017-09-11T18:34:47.250Z,15.80
2017-09-11T18:37:14.192Z,15.70
2017-09-11T18:39:41.105Z,15.70
2017-09-11T18:42:08.084Z,15.60
2017-09-11T18:44:35.131Z,15.40
2017-09-11T18:47:02.013Z,15.40
2017-09-11T18:49:28.924Z,15.20
2017-09-11T18:51:55.883Z,15.20
2017-09-11T18:54:22.835Z,15.10
2017-09-11T18:56:50.720Z,15.10
2017-09-11T18:59:17.773Z,15.00
2017-09-11T19:01:44.827Z,15.00
2017-09-11T19:04:11.793Z,15.10
2017-09-11T19:06:38.801Z,15.10
2017-09-11T19:09:06.011Z,15.00
2017-09-11T19:11:33.093Z,15.00
2017-09-11T19:14:00.095Z,14.90
2017-09-11T19:16:27.190Z,14.90
2017-09-11T19:18:54.368Z,14.90
2017-09-11T19:21:21.244Z,14.80
2017-09-11T19:23:49.899Z,14.80
2017-09-11T19:26:17.105Z,14.80
2017-09-11T19:28:45.007Z,14.70
2017-09-11T19:31:12.016Z,14.70
2017-09-11T19:33:38.897Z,14.70
2017-09-11T19:36:05.858Z,14.70
2017-09-11T19:38:32.734Z,14.70
2017-09-11T19:40:59.685Z,14.70
2017-09-11T19:43:26.638Z,14.60
2017-09-11T19:45:53.630Z,14.60
2017-09-11T19:48:21.741Z,14.50
2017-09-11T19:50:48.764Z,14.50
2017-09-11T19:53:16.077Z,14.50
2017-09-11T19:55:43.074Z,14.50
2017-09-11T19:58:10.025Z,14.50
2017-09-11T20:00:36.914Z,14.50
2017-09-11T20:03:03.885Z,14.50
2017-09-11T20:05:30.757Z,14.50
2017-09-11T20:07:57.662Z,14.40
2017-09-11T20:10:25.339Z,14.50
2017-09-11T20:12:52.351Z,14.40
2017-09-11T20:15:19.304Z,14.50
2017-09-11T20:17:46.281Z,14.40
2017-09-11T20:20:13.900Z,14.40
2017-09-11T20:22:40.818Z,14.50
2017-09-11T20:25:08.713Z,14.50
2017-09-11T20:27:35.824Z,14.50
2017-09-11T20:30:03.758Z,14.40
2017-09-11T20:32:40.312Z,14.50
2017-09-11T20:35:07.339Z,14.40
2017-09-11T20:37:49.075Z,14.50
2017-09-11T20:40:29.523Z,14.50
2017-09-11T20:43:11.178Z,14.50
2017-09-11T20:45:51.891Z,14.50
2017-09-11T20:48:30.729Z,14.50
2017-09-11T20:51:13.121Z,14.50
2017-09-11T20:53:53.481Z,14.50
2017-09-11T20:56:34.991Z,14.50
2017-09-11T20:59:18.082Z,14.50
2017-09-11T21:01:57.813Z,14.50
2017-09-11T21:04:37.541Z,14.60
2017-09-11T21:07:16.514Z,14.60
2017-09-11T21:09:44.119Z,14.60
2017-09-11T21:12:12.316Z,14.70
2017-09-11T21:14:39.270Z,14.70
2017-09-11T21:17:06.228Z,14.70
2017-09-11T21:19:33.153Z,14.80
2017-09-11T21:22:00.100Z,14.90
2017-09-11T21:24:27.059Z,14.80
2017-09-11T21:26:55.266Z,14.90
2017-09-11T21:29:22.156Z,15.00
2017-09-11T21:31:49.621Z,15.00
2017-09-11T21:34:26.299Z,15.00
2017-09-11T21:36:53.235Z,15.00
2017-09-11T21:39:20.158Z,15.00
2017-09-11T21:41:56.499Z,15.00
2017-09-11T21:44:23.452Z,15.00
2017-09-11T21:46:50.392Z,14.90
2017-09-11T21:49:27.660Z,14.90
2017-09-11T21:52:06.322Z,14.90
2017-09-11T21:54:45.998Z,14.90
2017-09-11T21:57:27.109Z,14.90
2017-09-11T22:00:04.717Z,14.90
2017-09-11T22:02:43.761Z,14.90
2017-09-11T22:05:17.583Z,14.90
2017-09-11T22:07:48.520Z,14.90
2017-09-11T22:10:15.447Z,14.90
2017-09-11T22:12:45.802Z,14.70
2017-09-11T22:15:15.957Z,14.70
2017-09-11T22:17:46.125Z,14.70
2017-09-11T22:20:16.873Z,14.60
2017-09-11T22:22:46.176Z,14.70
2017-09-11T22:25:13.387Z,14.70
2017-09-11T22:27:41.293Z,14.60
2017-09-11T22:30:11.586Z,14.60
2017-09-11T22:32:38.637Z,14.60
2017-09-11T22:35:08.651Z,14.60
2017-09-11T22:37:38.429Z,14.70
2017-09-11T22:40:06.368Z,14.70
2017-09-11T22:42:34.298Z,14.80
2017-09-11T22:45:04.814Z,14.70
2017-09-11T22:47:31.805Z,14.70
2017-09-11T22:49:58.796Z,14.60
2017-09-11T22:52:28.937Z,14.70
2017-09-11T22:54:56.789Z,14.60
2017-09-11T22:57:23.733Z,14.60
2017-09-11T22:59:50.640Z,14.60
2017-09-11T23:02:17.703Z,14.60
2017-09-11T23:04:45.330Z,14.60
2017-09-11T23:07:12.299Z,14.50
2017-09-11T23:09:39.215Z,14.60
2017-09-11T23:12:06.116Z,14.60
2017-09-11T23:14:33.064Z,14.60
2017-09-11T23:16:59.925Z,14.60
2017-09-11T23:19:26.890Z,14.50
2017-09-11T23:21:53.746Z,14.60
2017-09-11T23:24:20.701Z,14.60
2017-09-11T23:26:47.581Z,14.60
2017-09-11T23:29:15.190Z,14.50
2017-09-11T23:31:42.141Z,14.50
2017-09-11T23:34:09.063Z,14.50
2017-09-11T23:36:36.018Z,14.50
2017-09-11T23:39:03.202Z,14.40
2017-09-11T23:41:30.162Z,14.40
2017-09-11T23:43:57.062Z,14.50
2017-09-11T23:46:24.003Z,14.40
2017-09-11T23:48:50.949Z,14.40
2017-09-11T23:51:17.892Z,14.40
2017-09-11T23:53:44.840Z,14.40
2017-09-11T23:56:11.776Z,14.40
2017-09-11T23:58:38.720Z,14.30
